Terminal Aerodrome Forecast
Issued by NWS Charleston, WV

Current Version | Previous Version | Text Only | Print | Product List | Glossary Off
Versions: 1 2 3 4 5 6 7 8 9 10 11 12 13 14 15 16 17 18 19 20 21 22 23 24 25

000
FTUS41 KRLX 220800 AAA
TAFBKW
TAF AMD
KBKW 220803Z 2208/2306 13004KT 6SM BR FEW001 SCT020
     FM221200 13004KT P6SM SCT030
     FM221800 17004KT P6SM VCTS BKN035CB
     FM222300 15004KT P6SM BKN040=

USA.gov is the U.S. government's official web portal to all federal, state and local government web resources and services.